Time;durP1;ratioP1;P1;durP2;ratioP2;P2;SDS_P1;SDS_P2;PMS_P1;PMS_P2;Temp;Humidity;BMP_temperature;BMP_pressure;BME280_temperature;BME280_humidity;BME280_pressure;Samples;Min_cycle;Max_cycle;Signal;HPM_P1;HPM_P2
2022/03/10 00:00:59;;;;;;;22.27;17.25;;;7.10;41.70;;;;;;5072768;28;20235;-57
2022/03/10 00:03:26;;;;;;;19.52;17.00;;;7.10;41.60;;;;;;5072215;28;20762;-57
2022/03/10 00:05:54;;;;;;;21.48;16.10;;;7.10;41.40;;;;;;5072686;28;20283;-57
2022/03/10 00:08:21;;;;;;;20.77;15.65;;;7.20;41.10;;;;;;5071341;28;20673;-57
2022/03/10 00:10:48;;;;;;;18.60;15.18;;;7.10;41.20;;;;;;5072687;28;20575;-57
2022/03/10 00:13:16;;;;;;;18.73;15.35;;;7.10;41.10;;;;;;5072673;28;20201;-58
2022/03/10 00:15:43;;;;;;;15.40;13.77;;;7.10;40.90;;;;;;5072316;28;20623;-57
2022/03/10 00:18:10;;;;;;;19.70;14.75;;;7.10;41.00;;;;;;5072671;28;20200;-57
2022/03/10 00:20:37;;;;;;;20.73;15.15;;;7.00;41.10;;;;;;5072488;28;20651;-58
2022/03/10 00:23:06;;;;;;;18.55;15.30;;;7.00;41.20;;;;;;5071202;28;20207;-57
2022/03/10 00:25:34;;;;;;;18.20;16.02;;;6.90;41.70;;;;;;5072467;28;20717;-57
2022/03/10 00:28:01;;;;;;;17.33;14.93;;;6.80;41.90;;;;;;5072914;28;20211;-57
2022/03/10 00:30:28;;;;;;;18.10;14.50;;;6.80;41.90;;;;;;5076190;28;20626;-58
2022/03/10 00:32:55;;;;;;;20.15;14.45;;;6.80;42.30;;;;;;5076176;28;20634;-57
2022/03/10 00:35:24;;;;;;;21.15;16.02;;;6.80;42.30;;;;;;5076115;28;20282;-58
2022/03/10 00:37:51;;;;;;;17.95;14.20;;;6.80;42.60;;;;;;5074800;28;20205;-58
2022/03/10 00:40:20;;;;;;;21.58;15.75;;;6.80;43.10;;;;;;5076225;28;20566;-58
2022/03/10 00:42:47;;;;;;;17.60;14.65;;;6.80;42.80;;;;;;5076072;28;20291;-58
2022/03/10 00:45:16;;;;;;;20.73;14.48;;;6.70;43.30;;;;;;5075834;28;20205;-58
2022/03/10 00:47:43;;;;;;;19.85;14.23;;;6.70;43.40;;;;;;5075958;28;20228;-58
2022/03/10 00:50:11;;;;;;;16.52;14.38;;;6.70;43.60;;;;;;5075809;28;20539;-58
2022/03/10 00:52:40;;;;;;;19.95;15.48;;;6.60;43.70;;;;;;5074669;28;20613;-58
2022/03/10 00:55:08;;;;;;;16.25;14.13;;;6.60;43.90;;;;;;5075819;28;20200;-58
2022/03/10 00:57:37;;;;;;;16.55;14.32;;;6.60;44.40;;;;;;5075672;28;20298;-58
2022/03/10 01:00:06;;;;;;;16.23;14.30;;;6.50;44.40;;;;;;5092822;28;20208;-58
2022/03/10 01:02:34;;;;;;;18.75;14.98;;;6.40;44.50;;;;;;5095973;28;20204;-58
2022/03/10 01:05:01;;;;;;;20.55;15.32;;;6.40;44.50;;;;;;5095720;28;20232;-58
2022/03/10 01:07:28;;;;;;;17.02;14.70;;;6.40;44.80;;;;;;5094560;28;20218;-58
2022/03/10 01:09:55;;;;;;;15.50;13.70;;;6.40;44.60;;;;;;5095880;28;20228;-58
2022/03/10 01:12:22;;;;;;;16.27;14.68;;;6.30;44.70;;;;;;5095672;28;20201;-58
2022/03/10 01:14:50;;;;;;;17.75;13.95;;;6.30;45.00;;;;;;5095817;28;20204;-58
2022/03/10 01:17:21;;;;;;;15.55;13.85;;;6.30;45.20;;;;;;5095656;28;20811;-60
2022/03/10 01:19:48;;;;;;;17.10;14.18;;;6.30;45.10;;;;;;5095491;28;20196;-58
2022/03/10 01:22:15;;;;;;;18.33;13.63;;;6.30;45.10;;;;;;5094250;28;20210;-58
2022/03/10 01:24:42;;;;;;;16.33;13.73;;;6.30;44.50;;;;;;5095262;28;20230;-58
2022/03/10 01:27:10;;;;;;;16.48;13.27;;;6.40;44.60;;;;;;5095570;28;20204;-58
2022/03/10 01:29:37;;;;;;;18.65;13.90;;;6.40;44.50;;;;;;5095459;28;20211;-58
2022/03/10 01:32:05;;;;;;;15.32;13.73;;;6.40;44.30;;;;;;5095469;28;20306;-58
2022/03/10 01:34:32;;;;;;;17.08;13.35;;;6.40;44.80;;;;;;5095229;28;20268;-58
2022/03/10 01:36:59;;;;;;;18.80;13.93;;;6.40;44.60;;;;;;5093818;28;20234;-58
2022/03/10 01:39:26;;;;;;;16.42;13.60;;;6.50;44.10;;;;;;5095054;28;20228;-58
2022/03/10 01:41:53;;;;;;;18.52;14.32;;;6.50;44.60;;;;;;5095282;28;20211;-58
2022/03/10 01:44:21;;;;;;;17.02;13.48;;;6.50;44.00;;;;;;5095206;28;20204;-58
2022/03/10 01:46:48;;;;;;;14.50;12.90;;;6.50;44.40;;;;;;5095150;28;20243;-58
2022/03/10 01:49:16;;;;;;;18.83;13.98;;;6.50;44.30;;;;;;5094986;28;20635;-58
2022/03/10 01:51:44;;;;;;;15.27;13.68;;;6.50;44.70;;;;;;5093774;28;20196;-58
2022/03/10 01:54:12;;;;;;;16.08;13.50;;;6.50;44.50;;;;;;5094977;28;20294;-58
2022/03/10 01:56:39;;;;;;;16.58;13.13;;;6.40;44.90;;;;;;5094875;28;20231;-59
2022/03/10 01:59:06;;;;;;;16.27;13.45;;;6.30;44.90;;;;;;5094874;28;20294;-58
2022/03/10 02:01:34;;;;;;;17.23;14.57;;;6.30;44.90;;;;;;5094842;28;20200;-58
2022/03/10 02:04:02;;;;;;;17.20;14.10;;;6.20;45.50;;;;;;5094567;28;20266;-58
2022/03/10 02:06:30;;;;;;;16.98;15.20;;;6.20;44.90;;;;;;5093280;28;20299;-57
2022/03/10 02:11:42;;;;;;;18.05;15.07;;;6.40;45.90;;;;;;5094751;28;20670;-58
2022/03/10 02:19:38;;;;;;;18.38;14.63;;;6.30;45.20;;;;;;5094356;28;20202;-58
2022/03/10 02:22:09;;;;;;;19.50;15.60;;;6.10;45.70;;;;;;5093218;28;20701;-58
2022/03/10 02:24:37;;;;;;;16.98;15.00;;;6.00;46.30;;;;;;5094321;28;20226;-58
2022/03/10 02:27:13;;;;;;;18.65;15.05;;;6.00;45.90;;;;;;5094284;28;20560;-58
2022/03/10 02:29:42;;;;;;;20.85;15.38;;;6.00;46.30;;;;;;5094348;28;20218;-58
2022/03/10 02:32:09;;;;;;;16.52;14.55;;;6.10;45.80;;;;;;5094269;28;20204;-58
2022/03/10 02:34:35;;;;;;;19.73;15.45;;;6.20;45.70;;;;;;5094147;28;20291;-58
2022/03/10 02:37:02;;;;;;;17.27;15.43;;;6.30;45.80;;;;;;5092727;28;20238;-58
2022/03/10 02:39:30;;;;;;;19.23;14.50;;;6.30;45.60;;;;;;5094097;28;20561;-58
2022/03/10 02:41:57;;;;;;;22.55;15.75;;;6.30;45.70;;;;;;5093839;28;20291;-58
2022/03/10 02:44:24;;;;;;;20.98;15.90;;;6.40;45.40;;;;;;5093590;28;20223;-58
2022/03/10 02:46:51;;;;;;;21.88;15.95;;;6.40;45.10;;;;;;5093624;28;20232;-58
2022/03/10 02:49:18;;;;;;;21.38;15.93;;;6.40;44.80;;;;;;5093330;28;20211;-58
2022/03/10 02:51:45;;;;;;;22.42;16.65;;;6.50;44.50;;;;;;5091479;28;20634;-58
2022/03/10 02:54:12;;;;;;;19.90;16.70;;;6.50;44.40;;;;;;5093389;28;20254;-58
2022/03/10 02:56:40;;;;;;;25.95;16.30;;;6.50;44.30;;;;;;5093128;28;20228;-58
2022/03/10 02:59:07;;;;;;;23.13;17.23;;;6.50;43.70;;;;;;5093288;28;20607;-59
2022/03/10 03:01:34;;;;;;;21.60;17.23;;;6.50;43.70;;;;;;5093372;28;20204;-58
2022/03/10 03:04:01;;;;;;;24.73;17.45;;;6.60;44.00;;;;;;5093005;28;20258;-58
2022/03/10 03:06:28;;;;;;;22.60;18.05;;;6.60;43.90;;;;;;5091890;28;20243;-58
2022/03/10 03:08:55;;;;;;;23.30;17.35;;;6.60;43.80;;;;;;5093117;28;20655;-58
2022/03/10 03:11:22;;;;;;;21.60;17.75;;;6.60;43.60;;;;;;5093132;28;20295;-58
2022/03/10 03:13:50;;;;;;;29.92;18.10;;;6.60;43.80;;;;;;5093011;28;20250;-58
2022/03/10 03:16:17;;;;;;;22.52;17.55;;;6.60;43.60;;;;;;5093026;28;20223;-58
2022/03/10 03:18:43;;;;;;;25.67;17.35;;;6.60;43.70;;;;;;5092950;28;20258;-58
2022/03/10 03:21:10;;;;;;;21.67;17.65;;;6.60;43.90;;;;;;5093015;28;20292;-58
2022/03/10 03:23:37;;;;;;;23.02;17.23;;;6.50;43.80;;;;;;5091825;28;20231;-58
2022/03/10 03:26:04;;;;;;;20.67;17.13;;;6.40;43.90;;;;;;5092942;28;20206;-58
2022/03/10 03:28:31;;;;;;;20.92;15.93;;;6.40;43.90;;;;;;5092858;28;20235;-58
2022/03/10 03:30:59;;;;;;;18.73;14.45;;;6.40;43.80;;;;;;5092858;28;20200;-58
2022/03/10 03:33:26;;;;;;;18.83;15.32;;;6.40;43.70;;;;;;5092710;28;20245;-58
2022/03/10 03:35:53;;;;;;;16.23;13.63;;;6.40;43.80;;;;;;5092838;28;20204;-58
2022/03/10 03:38:19;;;;;;;18.95;15.32;;;6.40;43.80;;;;;;5091224;28;20259;-58
2022/03/10 03:40:46;;;;;;;17.02;13.85;;;6.40;43.70;;;;;;5092649;28;20204;-58
2022/03/10 03:43:13;;;;;;;15.32;13.10;;;6.50;43.70;;;;;;5092654;28;20196;-58
2022/03/10 03:45:40;;;;;;;17.70;14.60;;;6.50;43.70;;;;;;5092739;28;20524;-58
2022/03/10 03:48:08;;;;;;;16.30;14.27;;;6.50;43.80;;;;;;5092655;28;20295;-58
2022/03/10 03:50:35;;;;;;;18.95;14.70;;;6.50;43.60;;;;;;5092544;28;20203;-58
2022/03/10 03:53:02;;;;;;;17.05;14.88;;;6.50;43.90;;;;;;5091167;28;20282;-58
2022/03/10 03:55:29;;;;;;;16.77;14.95;;;6.40;43.80;;;;;;5092668;28;20624;-58
2022/03/10 03:57:56;;;;;;;19.75;14.65;;;6.40;43.90;;;;;;5092377;28;20318;-58
2022/03/10 04:00:23;;;;;;;16.60;13.88;;;6.40;43.70;;;;;;5092516;28;20210;-58
2022/03/10 04:02:50;;;;;;;17.77;14.65;;;6.40;43.90;;;;;;5092738;28;20286;-58
2022/03/10 04:05:18;;;;;;;17.02;14.10;;;6.40;44.00;;;;;;5096392;28;20236;-58
2022/03/10 04:07:46;;;;;;;18.70;15.07;;;6.40;44.00;;;;;;5095348;28;20253;-58
2022/03/10 04:10:12;;;;;;;15.57;13.88;;;6.30;44.20;;;;;;5096731;28;20203;-58
2022/03/10 04:12:39;;;;;;;20.63;14.70;;;6.30;44.30;;;;;;5096656;28;20253;-58
2022/03/10 04:15:07;;;;;;;19.20;14.85;;;6.20;44.50;;;;;;5096629;28;20227;-58
2022/03/10 04:17:34;;;;;;;16.98;13.63;;;6.20;44.40;;;;;;5096623;28;20228;-58
2022/03/10 04:20:02;;;;;;;16.52;14.57;;;6.10;44.50;;;;;;5096297;28;20210;-58
2022/03/10 04:22:31;;;;;;;17.55;14.65;;;6.10;44.70;;;;;;5095189;28;20658;-58
2022/03/10 04:24:57;;;;;;;17.63;14.15;;;6.10;44.60;;;;;;5096301;28;20220;-58
2022/03/10 04:27:24;;;;;;;18.45;14.18;;;6.10;44.90;;;;;;5096388;28;20210;-58
2022/03/10 04:29:51;;;;;;;20.27;15.32;;;6.00;44.70;;;;;;5096391;28;20236;-58
2022/03/10 04:32:18;;;;;;;16.02;14.43;;;6.00;45.10;;;;;;5096482;28;20287;-58
2022/03/10 04:34:45;;;;;;;17.70;14.93;;;6.00;45.10;;;;;;5096206;28;20577;-58
2022/03/10 04:37:11;;;;;;;21.38;15.15;;;5.90;45.20;;;;;;5094965;28;20772;-58
2022/03/10 04:39:40;;;;;;;15.55;12.82;;;5.80;45.20;;;;;;5096315;28;20303;-58
2022/03/10 04:42:07;;;;;;;17.33;14.45;;;5.70;46.30;;;;;;5096106;28;20299;-58
2022/03/10 04:44:34;;;;;;;16.20;14.27;;;5.60;46.20;;;;;;5096130;28;20231;-58
2022/03/10 04:47:00;;;;;;;17.20;14.30;;;5.50;46.20;;;;;;5096000;28;20730;-58
2022/03/10 04:49:27;;;;;;;17.80;12.30;;;5.50;46.30;;;;;;5095821;28;20685;-58
2022/03/10 04:51:54;;;;;;;15.65;14.10;;;5.50;46.30;;;;;;5094690;28;20600;-58
2022/03/10 04:54:21;;;;;;;19.58;14.50;;;5.50;46.80;;;;;;5095960;28;20291;-58
2022/03/10 04:56:49;;;;;;;16.88;12.73;;;5.50;46.50;;;;;;5095889;28;20232;-58
2022/03/10 04:59:16;;;;;;;17.50;14.27;;;5.60;46.60;;;;;;5095670;28;20291;-58
2022/03/10 05:01:43;;;;;;;18.17;13.80;;;5.50;46.90;;;;;;5095592;28;20235;-58
2022/03/10 05:04:10;;;;;;;16.50;14.18;;;5.50;47.30;;;;;;5095404;28;20277;-58
2022/03/10 05:06:36;;;;;;;17.38;14.02;;;5.60;47.00;;;;;;5094408;28;20695;-57
2022/03/10 05:09:03;;;;;;;16.67;11.02;;;5.70;46.70;;;;;;5095676;28;20780;-58
2022/03/10 05:11:30;;;;;;;15.60;13.98;;;5.70;46.40;;;;;;5095665;28;20218;-58
2022/03/10 05:13:58;;;;;;;16.65;14.57;;;5.70;46.20;;;;;;5095003;28;20239;-58
2022/03/10 05:16:25;;;;;;;14.32;11.60;;;5.70;46.90;;;;;;5095343;28;20211;-58
2022/03/10 05:18:52;;;;;;;16.33;14.70;;;5.70;46.90;;;;;;5095155;28;20238;-58
2022/03/10 05:21:19;;;;;;;14.80;13.32;;;5.70;46.60;;;;;;5093978;28;20211;-58
2022/03/10 05:23:46;;;;;;;15.75;13.90;;;5.80;46.50;;;;;;5095301;28;20327;-58
2022/03/10 05:26:13;;;;;;;16.95;14.80;;;5.70;46.30;;;;;;5095287;28;20283;-58
2022/03/10 05:28:39;;;;;;;18.13;15.02;;;5.70;46.60;;;;;;5095257;28;20208;-58
2022/03/10 05:31:08;;;;;;;15.35;13.80;;;5.70;46.90;;;;;;5095096;28;20675;-58
2022/03/10 05:33:34;;;;;;;15.45;13.45;;;5.70;46.60;;;;;;5095196;28;20581;-58
2022/03/10 05:36:01;;;;;;;14.52;12.98;;;5.70;46.80;;;;;;5095115;28;20207;-58
2022/03/10 05:38:28;;;;;;;15.15;12.70;;;5.70;46.40;;;;;;5093838;28;20763;-58
2022/03/10 05:40:55;;;;;;;14.07;12.52;;;5.70;46.80;;;;;;5095049;28;20235;-58
2022/03/10 05:43:22;;;;;;;16.95;13.57;;;5.70;46.90;;;;;;5094937;28;20298;-57
2022/03/10 05:45:49;;;;;;;16.33;14.82;;;5.70;46.70;;;;;;5095006;28;20245;-57
2022/03/10 05:48:17;;;;;;;15.02;13.10;;;5.70;46.60;;;;;;5095065;28;20294;-58
2022/03/10 05:50:44;;;;;;;16.42;13.23;;;5.60;46.80;;;;;;5094807;28;20247;-58
2022/03/10 05:53:11;;;;;;;18.65;14.77;;;5.40;47.40;;;;;;5093462;28;20287;-57
2022/03/10 05:55:38;;;;;;;19.83;14.90;;;5.20;47.90;;;;;;5094613;28;20222;-58
2022/03/10 05:58:05;;;;;;;17.95;11.82;;;5.00;48.90;;;;;;5094340;28;20224;-58
2022/03/10 06:00:32;;;;;;;19.30;13.60;;;4.60;49.50;;;;;;5094651;28;20283;-58
2022/03/10 06:02:59;;;;;;;19.33;15.43;;;4.30;50.70;;;;;;5094423;28;20227;-58
2022/03/10 06:05:27;;;;;;;16.08;13.50;;;4.00;51.90;;;;;;5094200;28;20297;-57
2022/03/10 06:07:54;;;;;;;20.27;15.30;;;4.00;51.30;;;;;;5093166;28;20573;-58
2022/03/10 06:10:22;;;;;;;20.08;16.02;;;4.00;51.60;;;;;;5094529;28;20223;-58
2022/03/10 06:12:49;;;;;;;22.17;14.88;;;3.90;51.80;;;;;;5094262;28;20200;-57
2022/03/10 06:15:16;;;;;;;19.35;16.25;;;3.90;51.30;;;;;;5094354;28;20303;-58
2022/03/10 06:17:43;;;;;;;19.02;16.00;;;3.90;51.80;;;;;;5094334;28;20223;-58
2022/03/10 06:20:11;;;;;;;22.10;14.60;;;3.90;51.50;;;;;;5094109;28;20239;-58
2022/03/10 06:22:40;;;;;;;21.73;16.17;;;3.90;51.60;;;;;;5092817;28;20574;-57
2022/03/10 06:25:09;;;;;;;21.13;16.38;;;3.90;51.60;;;;;;5093807;28;20204;-57
2022/03/10 06:27:37;;;;;;;20.55;14.75;;;3.90;51.30;;;;;;5093455;28;20204;-57
2022/03/10 06:30:04;;;;;;;21.25;16.83;;;3.90;50.80;;;;;;5094007;28;20237;-57
2022/03/10 06:32:31;;;;;;;19.05;15.95;;;4.00;51.10;;;;;;5094004;28;20680;-58
2022/03/10 06:34:59;;;;;;;48.78;29.88;;;4.00;50.90;;;;;;5093789;28;20295;-58
2022/03/10 06:37:27;;;;;;;34.25;21.75;;;4.10;50.60;;;;;;5092551;28;20231;-58
2022/03/10 06:39:55;;;;;;;26.63;18.27;;;4.20;50.80;;;;;;5093661;28;20627;-58
2022/03/10 06:42:22;;;;;;;22.40;17.48;;;4.30;50.50;;;;;;5093808;28;20200;-58
2022/03/10 06:44:49;;;;;;;23.85;17.55;;;4.40;50.50;;;;;;5094025;28;20287;-57
2022/03/10 06:47:17;;;;;;;25.27;17.52;;;4.40;50.10;;;;;;5093890;28;20344;-56
2022/03/10 06:49:44;;;;;;;23.90;18.42;;;4.50;49.60;;;;;;5093443;28;20640;-56
2022/03/10 06:52:11;;;;;;;24.42;19.35;;;4.70;49.00;;;;;;5092190;28;20206;-56
2022/03/10 06:54:38;;;;;;;28.15;19.13;;;4.80;48.50;;;;;;5093350;28;20662;-56
2022/03/10 06:57:07;;;;;;;24.80;18.73;;;4.90;48.10;;;;;;5093365;28;20207;-56
2022/03/10 06:59:35;;;;;;;26.38;18.23;;;5.00;47.90;;;;;;5093333;28;20257;-56
2022/03/10 07:02:03;;;;;;;28.52;19.27;;;5.00;47.70;;;;;;5093324;28;20248;-56
2022/03/10 07:04:29;;;;;;;25.52;18.00;;;5.00;47.40;;;;;;5093072;28;20582;-56
2022/03/10 07:06:56;;;;;;;28.42;20.10;;;5.00;47.40;;;;;;5091894;28;20705;-57
2022/03/10 07:09:23;;;;;;;26.10;15.70;;;5.00;47.60;;;;;;5093126;28;20678;-56
2022/03/10 07:11:50;;;;;;;27.45;20.05;;;5.10;47.70;;;;;;5093131;28;20291;-56
2022/03/10 07:14:18;;;;;;;22.08;18.77;;;5.10;47.70;;;;;;5093259;28;20196;-56
2022/03/10 07:16:45;;;;;;;26.95;19.55;;;5.20;47.60;;;;;;5092992;28;20697;-56
2022/03/10 07:19:13;;;;;;;23.75;16.95;;;5.30;47.60;;;;;;5092891;28;20235;-56
2022/03/10 07:21:40;;;;;;;22.90;17.90;;;5.50;47.50;;;;;;5091896;28;20200;-56
2022/03/10 07:24:07;;;;;;;21.95;17.05;;;5.60;47.40;;;;;;5092982;28;20247;-56
2022/03/10 07:26:35;;;;;;;19.88;15.68;;;5.80;47.30;;;;;;5093082;28;20734;-56
2022/03/10 07:29:02;;;;;;;21.40;14.38;;;5.90;47.30;;;;;;5092715;28;20244;-56
2022/03/10 07:31:31;;;;;;;21.13;14.50;;;6.00;47.30;;;;;;5092953;28;20778;-56
2022/03/10 07:33:59;;;;;;;19.83;17.02;;;6.00;47.20;;;;;;5092647;28;20292;-56
2022/03/10 07:36:26;;;;;;;20.33;15.95;;;6.00;47.30;;;;;;5091696;28;20210;-57
2022/03/10 07:38:53;;;;;;;20.23;16.02;;;6.10;47.30;;;;;;5092588;28;20224;-57
2022/03/10 07:41:20;;;;;;;19.33;16.20;;;6.20;47.20;;;;;;5092660;28;20299;-57
2022/03/10 07:43:47;;;;;;;18.65;16.58;;;6.30;47.10;;;;;;5092770;28;20299;-57
2022/03/10 07:46:14;;;;;;;17.55;15.35;;;6.50;46.90;;;;;;5092691;28;20618;-57
2022/03/10 07:48:42;;;;;;;18.10;14.45;;;6.60;46.60;;;;;;5092564;28;20287;-57
2022/03/10 07:51:09;;;;;;;19.02;16.55;;;6.70;46.30;;;;;;5092499;28;20200;-57
2022/03/10 07:53:36;;;;;;;17.98;14.93;;;6.80;46.10;;;;;;5091220;28;20733;-57
2022/03/10 07:56:04;;;;;;;17.30;14.73;;;6.90;46.10;;;;;;5092484;28;20250;-57
2022/03/10 07:58:31;;;;;;;17.05;14.10;;;7.00;45.80;;;;;;5092320;28;20236;-57
2022/03/10 08:00:58;;;;;;;17.70;14.50;;;7.10;45.50;;;;;;5092729;28;20603;-57
2022/03/10 08:03:26;;;;;;;19.38;14.95;;;7.10;45.80;;;;;;5092231;28;20200;-57
2022/03/10 08:05:55;;;;;;;17.48;15.65;;;7.20;45.50;;;;;;5092285;28;20204;-57
2022/03/10 08:08:22;;;;;;;17.58;14.70;;;7.30;45.90;;;;;;5091155;28;20295;-57
2022/03/10 08:10:48;;;;;;;19.65;16.48;;;7.40;45.80;;;;;;5092490;28;20207;-56
2022/03/10 08:13:15;;;;;;;16.65;14.80;;;7.50;45.60;;;;;;5092345;28;20651;-56
2022/03/10 08:15:43;;;;;;;15.48;13.98;;;7.50;46.00;;;;;;5092243;28;20206;-56
2022/03/10 08:18:10;;;;;;;18.45;14.45;;;7.50;45.80;;;;;;5092340;28;20312;-56
2022/03/10 08:20:39;;;;;;;14.82;13.18;;;7.70;46.10;;;;;;5092221;28;20204;-56
2022/03/10 08:23:07;;;;;;;19.42;16.38;;;7.80;45.60;;;;;;5091059;28;20220;-56
2022/03/10 08:25:36;;;;;;;16.10;14.48;;;8.00;45.30;;;;;;5092452;28;20200;-57
2022/03/10 08:28:04;;;;;;;18.27;13.90;;;7.90;45.10;;;;;;5092256;28;20257;-57
2022/03/10 08:30:31;;;;;;;14.63;12.65;;;8.00;45.10;;;;;;5092186;28;20609;-57
2022/03/10 08:32:58;;;;;;;17.95;15.45;;;8.10;45.20;;;;;;5092412;28;20673;-57
2022/03/10 08:35:25;;;;;;;14.65;13.25;;;8.30;45.50;;;;;;5092180;28;20549;-57
2022/03/10 08:37:52;;;;;;;15.90;14.20;;;8.30;44.70;;;;;;5090906;28;20234;-57
2022/03/10 08:40:20;;;;;;;17.38;15.50;;;8.40;44.90;;;;;;5092232;28;20231;-57
2022/03/10 08:42:49;;;;;;;17.02;15.27;;;8.50;44.60;;;;;;5092120;28;20226;-57
2022/03/10 08:45:16;;;;;;;15.40;13.88;;;8.60;45.00;;;;;;5092083;28;20206;-57
2022/03/10 08:47:44;;;;;;;15.23;13.82;;;8.70;44.70;;;;;;5092163;28;20283;-57
2022/03/10 08:50:12;;;;;;;14.55;12.98;;;8.80;44.80;;;;;;5094331;28;20214;-57
2022/03/10 08:52:39;;;;;;;15.45;13.95;;;8.80;44.80;;;;;;5094493;28;20207;-57
2022/03/10 08:55:08;;;;;;;16.08;14.25;;;8.90;44.50;;;;;;5095938;28;20287;-57
2022/03/10 08:57:36;;;;;;;14.63;13.25;;;8.90;44.70;;;;;;5095729;28;20251;-57
2022/03/10 09:00:04;;;;;;;15.63;14.13;;;9.00;45.00;;;;;;5095658;28;20239;-57
2022/03/10 09:02:31;;;;;;;15.75;13.77;;;9.10;44.20;;;;;;5095797;28;20291;-57
2022/03/10 09:04:58;;;;;;;16.95;14.40;;;9.10;44.20;;;;;;5095286;28;20666;-57
2022/03/10 09:07:25;;;;;;;15.80;14.07;;;9.00;44.00;;;;;;5094181;28;20736;-56
2022/03/10 09:09:52;;;;;;;17.40;14.40;;;9.10;44.10;;;;;;5095555;28;20212;-57
2022/03/10 09:12:19;;;;;;;14.98;13.45;;;9.20;44.20;;;;;;5095414;28;20640;-57
2022/03/10 09:14:47;;;;;;;17.90;13.30;;;9.20;44.70;;;;;;5095563;28;20207;-57
2022/03/10 09:17:14;;;;;;;13.77;12.57;;;9.20;44.30;;;;;;5085629;28;20632;-57
2022/03/10 09:19:41;;;;;;;15.05;13.57;;;9.40;44.50;;;;;;5078106;28;20235;-56
2022/03/10 09:22:08;;;;;;;13.90;12.40;;;9.50;42.90;;;;;;5073062;28;20255;-56
2022/03/10 09:24:35;;;;;;;14.73;13.32;;;9.50;43.60;;;;;;5087720;28;20206;-56
2022/03/10 09:27:02;;;;;;;15.10;13.73;;;9.50;43.10;;;;;;5094648;28;20211;-57
2022/03/10 09:29:29;;;;;;;13.13;11.82;;;9.60;43.90;;;;;;5082626;28;20227;-56
2022/03/10 09:31:57;;;;;;;16.67;14.88;;;9.80;43.50;;;;;;5074399;28;20209;-58
2022/03/10 09:34:24;;;;;;;16.45;14.88;;;10.00;42.90;;;;;;5074228;28;20573;-56
2022/03/10 09:36:51;;;;;;;15.48;13.98;;;10.00;43.10;;;;;;5087017;28;20201;-56
2022/03/10 09:39:19;;;;;;;12.50;11.20;;;10.10;43.10;;;;;;5094118;28;20236;-58
2022/03/10 09:41:46;;;;;;;13.77;12.07;;;10.20;43.00;;;;;;5094215;28;20290;-57
2022/03/10 09:44:14;;;;;;;14.55;13.27;;;10.30;42.40;;;;;;5094127;28;20232;-57
2022/03/10 09:46:42;;;;;;;14.60;13.30;;;10.40;42.30;;;;;;5094098;28;20689;-58
2022/03/10 09:49:11;;;;;;;13.63;12.20;;;10.60;42.10;;;;;;5094211;28;20204;-58
2022/03/10 09:51:38;;;;;;;14.07;12.73;;;10.70;42.40;;;;;;5092572;28;20727;-58
2022/03/10 09:54:05;;;;;;;14.05;12.75;;;10.80;42.20;;;;;;5094100;28;20617;-58
2022/03/10 09:56:36;;;;;;;13.75;12.45;;;10.90;42.20;;;;;;5094159;28;20676;-58
2022/03/10 09:59:06;;;;;;;11.20;10.27;;;11.00;40.70;;;;;;5093788;28;20326;-58
2022/03/10 10:01:33;;;;;;;15.25;13.57;;;11.00;42.00;;;;;;5093779;28;20693;-59
2022/03/10 10:04:00;;;;;;;14.70;13.48;;;11.20;42.20;;;;;;5093728;28;20268;-58
2022/03/10 10:06:28;;;;;;;15.77;14.30;;;11.20;41.70;;;;;;5092161;28;20500;-58
2022/03/10 10:08:56;;;;;;;14.63;13.45;;;11.30;42.00;;;;;;5093761;28;20208;-58
2022/03/10 10:11:31;;;;;;;15.35;13.80;;;11.40;41.40;;;;;;5094089;28;20219;-58
2022/03/10 10:13:58;;;;;;;14.30;13.15;;;11.50;40.20;;;;;;5093698;28;20207;-58
2022/03/10 10:16:25;;;;;;;13.50;12.20;;;11.60;41.30;;;;;;5093655;28;20207;-58
2022/03/10 10:18:56;;;;;;;14.77;13.52;;;11.80;40.60;;;;;;5093477;28;20647;-58
2022/03/10 10:21:24;;;;;;;14.80;13.40;;;12.00;40.60;;;;;;5092069;28;20713;-58
2022/03/10 10:23:54;;;;;;;13.00;11.80;;;12.00;39.90;;;;;;5093660;28;20204;-58
2022/03/10 10:26:26;;;;;;;14.20;12.90;;;12.10;39.90;;;;;;5093639;28;20627;-58
2022/03/10 10:28:54;;;;;;;12.07;10.95;;;12.20;40.20;;;;;;5086278;28;20292;-58
2022/03/10 10:31:22;;;;;;;13.18;11.98;;;12.30;39.30;;;;;;5073163;28;20217;-58
2022/03/10 10:34:01;;;;;;;12.30;11.38;;;12.40;39.70;;;;;;5073299;28;20205;-58
2022/03/10 10:36:29;;;;;;;14.20;13.10;;;12.60;39.70;;;;;;5071681;28;20201;-58
2022/03/10 10:38:59;;;;;;;15.65;12.40;;;12.80;38.90;;;;;;5073070;28;20319;-58
2022/03/10 10:41:27;;;;;;;13.73;12.32;;;12.90;38.40;;;;;;5073078;28;20203;-58
2022/03/10 10:43:56;;;;;;;13.63;12.50;;;12.90;38.90;;;;;;5072572;28;20236;-58
2022/03/10 10:46:31;;;;;;;13.65;12.48;;;13.00;38.50;;;;;;5072851;28;20204;-58
2022/03/10 10:49:00;;;;;;;11.85;10.75;;;13.20;38.70;;;;;;5072816;28;20208;-58
2022/03/10 10:51:33;;;;;;;13.07;11.98;;;13.30;37.00;;;;;;5071366;28;20205;-58
2022/03/10 10:54:03;;;;;;;12.50;11.50;;;13.30;37.00;;;;;;5072831;28;20573;-58
2022/03/10 10:56:30;;;;;;;13.20;12.05;;;13.40;36.40;;;;;;5072728;28;20312;-59
2022/03/10 10:58:57;;;;;;;13.60;12.50;;;13.40;36.30;;;;;;5072502;28;20232;-58
2022/03/10 11:01:33;;;;;;;14.20;12.90;;;13.40;37.30;;;;;;5072508;28;20209;-58
2022/03/10 11:04:01;;;;;;;13.02;11.90;;;13.60;37.00;;;;;;5072624;28;20587;-58
2022/03/10 11:06:28;;;;;;;12.80;11.65;;;13.70;38.00;;;;;;5071143;28;20209;-59
2022/03/10 11:08:55;;;;;;;15.15;13.75;;;13.90;37.20;;;;;;5072284;28;20201;-58
2022/03/10 11:11:24;;;;;;;13.25;12.07;;;14.00;37.60;;;;;;5072311;28;20208;-58
2022/03/10 11:13:52;;;;;;;12.75;11.70;;;14.10;37.40;;;;;;5090650;28;20254;-58
2022/03/10 11:16:20;;;;;;;12.30;11.20;;;14.40;36.10;;;;;;5092636;28;20230;-58
2022/03/10 11:18:51;;;;;;;11.30;10.48;;;14.50;34.60;;;;;;5093182;28;20227;-58
2022/03/10 11:21:44;;;;;;;12.55;11.65;;;14.70;35.00;;;;;;5092146;28;20210;-58
2022/03/10 11:24:36;;;;;;;12.30;11.40;;;15.00;33.70;;;;;;5080065;28;20286;-58
2022/03/10 11:27:10;;;;;;;11.93;11.00;;;15.80;34.30;;;;;;5092985;28;20540;-58
2022/03/10 11:29:39;;;;;;;10.00;9.30;;;18.20;32.40;;;;;;5092945;28;20540;-59
2022/03/10 11:32:07;;;;;;;10.53;9.80;;;20.60;28.90;;;;;;5093026;28;20445;-58
2022/03/10 11:34:48;;;;;;;11.93;11.03;;;22.60;26.60;;;;;;5093015;28;20529;-59
2022/03/10 11:37:51;;;;;;;11.73;10.93;;;24.40;24.90;;;;;;5091514;28;20450;-57
2022/03/10 11:40:21;;;;;;;11.73;10.93;;;26.00;23.60;;;;;;5092706;28;20500;-57
2022/03/10 11:43:00;;;;;;;12.33;11.23;;;27.30;22.00;;;;;;5092791;28;20454;-57
2022/03/10 11:45:30;;;;;;;11.30;10.50;;;27.80;20.00;;;;;;5092819;28;20451;-57
2022/03/10 11:48:36;;;;;;;9.57;8.80;;;28.00;20.90;;;;;;5092693;28;20937;-57
2022/03/10 11:51:17;;;;;;;12.03;11.27;;;29.20;18.60;;;;;;5092489;28;20925;-57
2022/03/10 11:54:06;;;;;;;9.87;9.27;;;29.80;19.70;;;;;;5092527;28;20540;-57
2022/03/10 11:56:52;;;;;;;12.13;11.30;;;30.80;17.80;;;;;;5092734;28;20441;-57
2022/03/10 11:59:24;;;;;;;11.43;10.83;;;30.60;17.50;;;;;;5092678;28;20491;-57
2022/03/10 12:01:51;;;;;;;11.57;10.87;;;30.50;18.30;;;;;;5092761;28;20462;-57
2022/03/10 12:04:20;;;;;;;11.67;11.07;;;30.50;16.40;;;;;;5092612;28;20478;-57
2022/03/10 12:06:56;;;;;;;12.90;11.83;;;30.20;17.10;;;;;;5091381;28;20450;-57
2022/03/10 12:09:28;;;;;;;10.60;10.00;;;29.80;17.20;;;;;;5092558;28;20477;-57
2022/03/10 12:12:04;;;;;;;11.37;10.57;;;28.50;15.90;;;;;;5092716;28;20448;-59
2022/03/10 12:14:32;;;;;;;11.97;11.07;;;26.60;18.20;;;;;;5092671;28;20542;-59
2022/03/10 12:16:59;;;;;;;11.50;10.80;;;25.70;18.70;;;;;;5092693;28;20546;-58
2022/03/10 12:19:59;;;;;;;10.67;10.00;;;25.00;19.60;;;;;;5092648;28;20477;-59
2022/03/10 12:22:29;;;;;;;11.43;10.73;;;24.40;19.70;;;;;;5091467;28;20549;-59
2022/03/10 12:25:18;;;;;;;11.23;10.50;;;23.60;21.10;;;;;;5094626;28;20856;-59
2022/03/10 12:27:49;;;;;;;11.40;10.60;;;23.00;21.00;;;;;;5096618;28;20521;-59
2022/03/10 12:30:21;;;;;;;11.50;10.70;;;22.30;21.60;;;;;;5096242;28;20502;-59
2022/03/10 12:32:51;;;;;;;11.73;10.83;;;21.70;22.40;;;;;;5096564;28;20452;-59
2022/03/10 12:35:21;;;;;;;10.03;9.43;;;21.10;23.60;;;;;;5096295;28;20544;-59
2022/03/10 12:37:49;;;;;;;10.53;9.83;;;20.40;24.30;;;;;;5095034;28;20454;-58
2022/03/10 12:40:19;;;;;;;11.60;10.90;;;20.00;24.60;;;;;;5096349;28;20445;-59
2022/03/10 12:42:47;;;;;;;10.33;9.67;;;19.70;24.90;;;;;;5096237;28;20460;-59
2022/03/10 12:45:14;;;;;;;11.03;10.37;;;19.70;24.60;;;;;;5096266;28;20438;-59
2022/03/10 12:47:46;;;;;;;11.77;10.97;;;19.80;24.20;;;;;;5096124;28;20452;-59
2022/03/10 12:50:13;;;;;;;11.43;10.53;;;19.90;26.20;;;;;;5095921;28;20497;-59